sensor_id;sensor_type;location;lat;lon;timestamp;temperature;humidity
5150;DHT22;2593;52.466;13.436;2022-08-19T00:00:19;22.10;99.90
5150;DHT22;2593;52.466;13.436;2022-08-19T00:02:45;22.00;99.90
5150;DHT22;2593;52.466;13.436;2022-08-19T00:05:13;22.10;99.90
5150;DHT22;2593;52.466;13.436;2022-08-19T00:07:40;22.10;99.90
5150;DHT22;2593;52.466;13.436;2022-08-19T00:10:07;22.10;99.90
5150;DHT22;2593;52.466;13.436;2022-08-19T00:12:33;22.10;99.90
5150;DHT22;2593;52.466;13.436;2022-08-19T00:14:59;22.00;99.90
5150;DHT22;2593;52.466;13.436;2022-08-19T00:17:24;22.00;99.90
5150;DHT22;2593;52.466;13.436;2022-08-19T00:19:50;22.10;99.90
5150;DHT22;2593;52.466;13.436;2022-08-19T00:22:15;22.20;99.90
5150;DHT22;2593;52.466;13.436;2022-08-19T00:24:44;22.30;99.90
5150;DHT22;2593;52.466;13.436;2022-08-19T00:27:11;22.20;99.90
5150;DHT22;2593;52.466;13.436;2022-08-19T00:29:37;22.10;99.90
5150;DHT22;2593;52.466;13.436;2022-08-19T00:32:03;22.00;99.90
5150;DHT22;2593;52.466;13.436;2022-08-19T00:34:29;22.10;99.90
5150;DHT22;2593;52.466;13.436;2022-08-19T00:36:56;22.10;99.90
5150;DHT22;2593;52.466;13.436;2022-08-19T00:39:22;22.00;99.90
5150;DHT22;2593;52.466;13.436;2022-08-19T00:41:48;22.00;99.90
5150;DHT22;2593;52.466;13.436;2022-08-19T00:44:21;22.00;99.90
5150;DHT22;2593;52.466;13.436;2022-08-19T00:46:49;22.00;99.90
5150;DHT22;2593;52.466;13.436;2022-08-19T00:49:29;22.10;99.90
5150;DHT22;2593;52.466;13.436;2022-08-19T00:52:02;22.20;99.90
5150;DHT22;2593;52.466;13.436;2022-08-19T00:54:30;22.30;99.90
5150;DHT22;2593;52.466;13.436;2022-08-19T00:56:57;22.30;99.90
5150;DHT22;2593;52.466;13.436;2022-08-19T00:59:23;22.20;99.90
5150;DHT22;2593;52.466;13.436;2022-08-19T01:01:49;22.10;99.90
5150;DHT22;2593;52.466;13.436;2022-08-19T01:04:15;22.00;99.90
5150;DHT22;2593;52.466;13.436;2022-08-19T01:06:41;21.90;99.90
5150;DHT22;2593;52.466;13.436;2022-08-19T01:09:08;21.80;99.90
5150;DHT22;2593;52.466;13.436;2022-08-19T01:11:36;21.80;99.90
5150;DHT22;2593;52.466;13.436;2022-08-19T01:14:03;21.90;99.90
5150;DHT22;2593;52.466;13.436;2022-08-19T01:16:31;21.70;99.90
5150;DHT22;2593;52.466;13.436;2022-08-19T01:18:57;21.60;99.90
5150;DHT22;2593;52.466;13.436;2022-08-19T01:21:47;21.50;99.90
5150;DHT22;2593;52.466;13.436;2022-08-19T01:24:16;21.40;99.90
5150;DHT22;2593;52.466;13.436;2022-08-19T01:26:43;21.30;99.90
5150;DHT22;2593;52.466;13.436;2022-08-19T01:29:11;21.20;99.90
5150;DHT22;2593;52.466;13.436;2022-08-19T01:31:36;21.00;99.90
5150;DHT22;2593;52.466;13.436;2022-08-19T01:34:04;21.00;99.90
5150;DHT22;2593;52.466;13.436;2022-08-19T01:36:33;21.00;99.90
5150;DHT22;2593;52.466;13.436;2022-08-19T01:39:01;21.00;99.90
5150;DHT22;2593;52.466;13.436;2022-08-19T01:41:27;20.90;99.90
5150;DHT22;2593;52.466;13.436;2022-08-19T01:43:53;20.80;99.90
5150;DHT22;2593;52.466;13.436;2022-08-19T01:46:19;20.90;99.90
5150;DHT22;2593;52.466;13.436;2022-08-19T01:48:46;20.80;99.90
5150;DHT22;2593;52.466;13.436;2022-08-19T01:51:13;20.70;99.90
5150;DHT22;2593;52.466;13.436;2022-08-19T01:53:39;20.70;99.90
5150;DHT22;2593;52.466;13.436;2022-08-19T01:56:06;20.70;99.90
5150;DHT22;2593;52.466;13.436;2022-08-19T01:58:38;20.70;99.90
5150;DHT22;2593;52.466;13.436;2022-08-19T02:01:05;20.70;99.90
5150;DHT22;2593;52.466;13.436;2022-08-19T02:03:31;20.70;99.90
5150;DHT22;2593;52.466;13.436;2022-08-19T02:05:59;20.60;99.90
5150;DHT22;2593;52.466;13.436;2022-08-19T02:08:26;20.50;99.90
5150;DHT22;2593;52.466;13.436;2022-08-19T02:10:52;20.50;99.90
5150;DHT22;2593;52.466;13.436;2022-08-19T02:13:18;20.40;99.90
5150;DHT22;2593;52.466;13.436;2022-08-19T02:15:44;20.30;99.90
5150;DHT22;2593;52.466;13.436;2022-08-19T02:18:09;20.30;99.90
5150;DHT22;2593;52.466;13.436;2022-08-19T02:20:37;20.30;99.90
5150;DHT22;2593;52.466;13.436;2022-08-19T02:23:04;20.30;99.90
5150;DHT22;2593;52.466;13.436;2022-08-19T02:25:29;20.30;99.90
5150;DHT22;2593;52.466;13.436;2022-08-19T02:27:55;20.30;99.90
5150;DHT22;2593;52.466;13.436;2022-08-19T02:30:21;20.30;99.90
5150;DHT22;2593;52.466;13.436;2022-08-19T02:32:47;20.30;99.90
5150;DHT22;2593;52.466;13.436;2022-08-19T02:35:14;20.30;99.90
5150;DHT22;2593;52.466;13.436;2022-08-19T02:37:41;20.30;99.90
5150;DHT22;2593;52.466;13.436;2022-08-19T02:40:26;20.40;99.90
5150;DHT22;2593;52.466;13.436;2022-08-19T02:42:52;20.30;99.90
5150;DHT22;2593;52.466;13.436;2022-08-19T02:45:17;20.20;99.90
5150;DHT22;2593;52.466;13.436;2022-08-19T02:47:43;20.20;99.90
5150;DHT22;2593;52.466;13.436;2022-08-19T02:50:09;20.40;99.90
5150;DHT22;2593;52.466;13.436;2022-08-19T02:52:35;20.40;99.90
5150;DHT22;2593;52.466;13.436;2022-08-19T02:55:01;20.30;99.90
5150;DHT22;2593;52.466;13.436;2022-08-19T02:57:27;20.30;99.90
5150;DHT22;2593;52.466;13.436;2022-08-19T02:59:53;20.30;99.90
5150;DHT22;2593;52.466;13.436;2022-08-19T03:02:19;20.40;99.90
5150;DHT22;2593;52.466;13.436;2022-08-19T03:04:45;20.40;99.90
5150;DHT22;2593;52.466;13.436;2022-08-19T03:07:14;20.40;99.90
5150;DHT22;2593;52.466;13.436;2022-08-19T03:09:40;20.30;99.90
5150;DHT22;2593;52.466;13.436;2022-08-19T03:12:08;20.40;99.90
5150;DHT22;2593;52.466;13.436;2022-08-19T03:14:34;20.40;99.90
5150;DHT22;2593;52.466;13.436;2022-08-19T03:17:01;20.40;99.90
5150;DHT22;2593;52.466;13.436;2022-08-19T03:19:26;20.30;99.90
5150;DHT22;2593;52.466;13.436;2022-08-19T03:21:53;20.30;99.90
5150;DHT22;2593;52.466;13.436;2022-08-19T03:24:19;20.20;99.90
5150;DHT22;2593;52.466;13.436;2022-08-19T03:26:49;20.30;99.90
5150;DHT22;2593;52.466;13.436;2022-08-19T03:29:16;20.30;99.90
5150;DHT22;2593;52.466;13.436;2022-08-19T03:31:43;20.30;99.90
5150;DHT22;2593;52.466;13.436;2022-08-19T03:34:11;20.20;99.90
5150;DHT22;2593;52.466;13.436;2022-08-19T03:36:37;20.30;99.90
5150;DHT22;2593;52.466;13.436;2022-08-19T03:39:03;20.20;99.90
5150;DHT22;2593;52.466;13.436;2022-08-19T03:41:31;20.20;99.90
5150;DHT22;2593;52.466;13.436;2022-08-19T03:43:58;20.30;99.90
5150;DHT22;2593;52.466;13.436;2022-08-19T03:46:31;20.30;99.90
5150;DHT22;2593;52.466;13.436;2022-08-19T03:48:59;20.30;99.90
5150;DHT22;2593;52.466;13.436;2022-08-19T03:51:27;20.30;99.90
5150;DHT22;2593;52.466;13.436;2022-08-19T03:53:54;20.30;99.90
5150;DHT22;2593;52.466;13.436;2022-08-19T03:56:21;20.30;99.90
5150;DHT22;2593;52.466;13.436;2022-08-19T03:58:47;20.40;99.90
5150;DHT22;2593;52.466;13.436;2022-08-19T04:01:17;20.30;99.90
5150;DHT22;2593;52.466;13.436;2022-08-19T04:03:44;20.40;99.90
5150;DHT22;2593;52.466;13.436;2022-08-19T04:06:17;20.40;99.90
5150;DHT22;2593;52.466;13.436;2022-08-19T04:08:44;20.40;99.90
5150;DHT22;2593;52.466;13.436;2022-08-19T04:11:13;20.40;99.90
5150;DHT22;2593;52.466;13.436;2022-08-19T04:13:39;20.30;99.90
5150;DHT22;2593;52.466;13.436;2022-08-19T04:16:07;20.30;99.90
5150;DHT22;2593;52.466;13.436;2022-08-19T04:18:33;20.40;99.90
5150;DHT22;2593;52.466;13.436;2022-08-19T04:20:59;20.40;99.90
5150;DHT22;2593;52.466;13.436;2022-08-19T04:23:25;20.40;99.90
5150;DHT22;2593;52.466;13.436;2022-08-19T04:25:53;20.30;99.90
5150;DHT22;2593;52.466;13.436;2022-08-19T04:28:19;20.40;99.90
5150;DHT22;2593;52.466;13.436;2022-08-19T04:30:47;20.50;99.90
5150;DHT22;2593;52.466;13.436;2022-08-19T04:33:15;20.60;99.90
5150;DHT22;2593;52.466;13.436;2022-08-19T04:35:45;20.70;99.90
5150;DHT22;2593;52.466;13.436;2022-08-19T04:38:13;20.70;99.90
5150;DHT22;2593;52.466;13.436;2022-08-19T04:40:47;20.70;99.90
5150;DHT22;2593;52.466;13.436;2022-08-19T04:43:32;20.70;99.90
5150;DHT22;2593;52.466;13.436;2022-08-19T04:46:07;20.80;99.90
5150;DHT22;2593;52.466;13.436;2022-08-19T04:48:34;20.70;99.90
5150;DHT22;2593;52.466;13.436;2022-08-19T04:50:59;20.80;99.90
5150;DHT22;2593;52.466;13.436;2022-08-19T04:53:27;21.00;99.90
5150;DHT22;2593;52.466;13.436;2022-08-19T04:55:55;20.90;99.90
5150;DHT22;2593;52.466;13.436;2022-08-19T04:58:22;21.00;99.90
5150;DHT22;2593;52.466;13.436;2022-08-19T05:00:48;21.10;99.90
5150;DHT22;2593;52.466;13.436;2022-08-19T05:03:13;21.20;99.90
5150;DHT22;2593;52.466;13.436;2022-08-19T05:05:46;21.20;99.90
5150;DHT22;2593;52.466;13.436;2022-08-19T05:08:15;21.20;99.90
5150;DHT22;2593;52.466;13.436;2022-08-19T05:10:46;21.20;99.90
5150;DHT22;2593;52.466;13.436;2022-08-19T05:13:14;21.20;99.90
5150;DHT22;2593;52.466;13.436;2022-08-19T05:15:40;21.30;99.90
5150;DHT22;2593;52.466;13.436;2022-08-19T05:18:05;21.30;99.90
5150;DHT22;2593;52.466;13.436;2022-08-19T05:20:49;21.20;99.90
5150;DHT22;2593;52.466;13.436;2022-08-19T05:23:34;21.20;99.90
5150;DHT22;2593;52.466;13.436;2022-08-19T05:25:59;21.20;99.90
5150;DHT22;2593;52.466;13.436;2022-08-19T05:28:25;21.30;99.90
5150;DHT22;2593;52.466;13.436;2022-08-19T05:30:51;21.30;99.90
5150;DHT22;2593;52.466;13.436;2022-08-19T05:33:17;21.40;99.90
5150;DHT22;2593;52.466;13.436;2022-08-19T05:35:43;21.50;99.90
5150;DHT22;2593;52.466;13.436;2022-08-19T05:38:10;21.50;99.90
5150;DHT22;2593;52.466;13.436;2022-08-19T05:40:37;21.60;99.90
5150;DHT22;2593;52.466;13.436;2022-08-19T05:43:06;21.70;99.90
5150;DHT22;2593;52.466;13.436;2022-08-19T05:45:32;21.80;99.90
5150;DHT22;2593;52.466;13.436;2022-08-19T05:47:59;21.80;99.90
5150;DHT22;2593;52.466;13.436;2022-08-19T05:50:25;21.90;99.90
5150;DHT22;2593;52.466;13.436;2022-08-19T05:52:52;21.80;99.90
5150;DHT22;2593;52.466;13.436;2022-08-19T05:55:18;21.70;99.90
5150;DHT22;2593;52.466;13.436;2022-08-19T05:57:45;21.80;99.90
5150;DHT22;2593;52.466;13.436;2022-08-19T06:00:12;21.90;99.90
5150;DHT22;2593;52.466;13.436;2022-08-19T06:02:38;22.00;99.90
5150;DHT22;2593;52.466;13.436;2022-08-19T06:05:05;22.00;99.90
5150;DHT22;2593;52.466;13.436;2022-08-19T06:07:39;21.90;99.90
5150;DHT22;2593;52.466;13.436;2022-08-19T06:10:06;22.00;99.90
5150;DHT22;2593;52.466;13.436;2022-08-19T06:12:34;22.10;99.90
5150;DHT22;2593;52.466;13.436;2022-08-19T06:15:02;22.00;99.90
5150;DHT22;2593;52.466;13.436;2022-08-19T06:17:29;22.10;99.90
5150;DHT22;2593;52.466;13.436;2022-08-19T06:19:56;22.10;99.90
5150;DHT22;2593;52.466;13.436;2022-08-19T06:22:21;22.20;99.90
5150;DHT22;2593;52.466;13.436;2022-08-19T06:24:47;22.20;99.90
5150;DHT22;2593;52.466;13.436;2022-08-19T06:27:13;22.30;99.90
5150;DHT22;2593;52.466;13.436;2022-08-19T06:29:39;22.40;99.90
5150;DHT22;2593;52.466;13.436;2022-08-19T06:32:04;22.40;99.90
5150;DHT22;2593;52.466;13.436;2022-08-19T06:34:32;22.40;99.90
5150;DHT22;2593;52.466;13.436;2022-08-19T06:37:00;22.50;99.90
5150;DHT22;2593;52.466;13.436;2022-08-19T06:39:30;22.60;99.90
5150;DHT22;2593;52.466;13.436;2022-08-19T06:41:59;22.60;99.90
5150;DHT22;2593;52.466;13.436;2022-08-19T06:44:27;22.60;99.90
5150;DHT22;2593;52.466;13.436;2022-08-19T06:46:56;22.60;99.90
5150;DHT22;2593;52.466;13.436;2022-08-19T06:49:23;22.80;99.90
5150;DHT22;2593;52.466;13.436;2022-08-19T06:51:49;22.80;99.90
5150;DHT22;2593;52.466;13.436;2022-08-19T06:54:17;22.80;99.90
5150;DHT22;2593;52.466;13.436;2022-08-19T06:56:43;22.70;99.90
5150;DHT22;2593;52.466;13.436;2022-08-19T06:59:13;22.60;99.90
5150;DHT22;2593;52.466;13.436;2022-08-19T07:01:45;22.70;99.90
5150;DHT22;2593;52.466;13.436;2022-08-19T07:04:17;22.70;99.90
5150;DHT22;2593;52.466;13.436;2022-08-19T07:06:43;22.70;99.90
5150;DHT22;2593;52.466;13.436;2022-08-19T07:09:14;22.70;99.90
5150;DHT22;2593;52.466;13.436;2022-08-19T07:11:45;22.70;99.90
5150;DHT22;2593;52.466;13.436;2022-08-19T07:14:11;22.80;99.90
5150;DHT22;2593;52.466;13.436;2022-08-19T07:16:36;22.90;99.90
5150;DHT22;2593;52.466;13.436;2022-08-19T07:19:02;23.00;99.90
5150;DHT22;2593;52.466;13.436;2022-08-19T07:21:28;23.10;99.90
5150;DHT22;2593;52.466;13.436;2022-08-19T07:23:55;23.20;99.90
5150;DHT22;2593;52.466;13.436;2022-08-19T07:26:24;23.20;99.90
5150;DHT22;2593;52.466;13.436;2022-08-19T07:28:50;23.20;99.90
5150;DHT22;2593;52.466;13.436;2022-08-19T07:31:19;23.20;99.90
5150;DHT22;2593;52.466;13.436;2022-08-19T07:33:47;23.30;99.90
5150;DHT22;2593;52.466;13.436;2022-08-19T07:36:14;23.30;99.90
5150;DHT22;2593;52.466;13.436;2022-08-19T07:38:42;23.20;99.90
5150;DHT22;2593;52.466;13.436;2022-08-19T07:41:13;23.20;99.90
5150;DHT22;2593;52.466;13.436;2022-08-19T07:43:39;23.20;99.90
5150;DHT22;2593;52.466;13.436;2022-08-19T07:46:06;23.30;99.90
5150;DHT22;2593;52.466;13.436;2022-08-19T07:48:32;23.50;99.90
5150;DHT22;2593;52.466;13.436;2022-08-19T07:51:00;23.60;99.90
5150;DHT22;2593;52.466;13.436;2022-08-19T07:53:28;23.50;99.90
5150;DHT22;2593;52.466;13.436;2022-08-19T07:55:54;23.50;99.90
5150;DHT22;2593;52.466;13.436;2022-08-19T07:58:22;23.50;99.90
5150;DHT22;2593;52.466;13.436;2022-08-19T08:00:50;23.70;99.90
5150;DHT22;2593;52.466;13.436;2022-08-19T08:03:18;23.70;99.90
5150;DHT22;2593;52.466;13.436;2022-08-19T08:05:44;23.60;99.90
5150;DHT22;2593;52.466;13.436;2022-08-19T08:08:29;23.60;99.90
5150;DHT22;2593;52.466;13.436;2022-08-19T08:11:11;23.70;99.90
5150;DHT22;2593;52.466;13.436;2022-08-19T08:13:37;23.70;99.90
5150;DHT22;2593;52.466;13.436;2022-08-19T08:16:02;23.60;99.90
5150;DHT22;2593;52.466;13.436;2022-08-19T08:18:28;23.50;99.90
5150;DHT22;2593;52.466;13.436;2022-08-19T08:20:55;23.60;99.90
5150;DHT22;2593;52.466;13.436;2022-08-19T08:23:20;23.50;99.90
5150;DHT22;2593;52.466;13.436;2022-08-19T08:25:55;23.50;99.90
5150;DHT22;2593;52.466;13.436;2022-08-19T08:28:22;23.50;99.90
5150;DHT22;2593;52.466;13.436;2022-08-19T08:30:49;23.60;99.90
5150;DHT22;2593;52.466;13.436;2022-08-19T08:33:20;23.70;99.90
5150;DHT22;2593;52.466;13.436;2022-08-19T08:35:46;23.80;99.90
5150;DHT22;2593;52.466;13.436;2022-08-19T08:38:13;23.90;99.90
5150;DHT22;2593;52.466;13.436;2022-08-19T08:46:07;24.20;99.90
5150;DHT22;2593;52.466;13.436;2022-08-19T08:48:47;24.30;99.90
5150;DHT22;2593;52.466;13.436;2022-08-19T08:51:22;24.50;99.90
5150;DHT22;2593;52.466;13.436;2022-08-19T08:53:51;24.60;99.90
5150;DHT22;2593;52.466;13.436;2022-08-19T08:56:17;24.60;99.90
5150;DHT22;2593;52.466;13.436;2022-08-19T08:59:52;24.60;99.90
5150;DHT22;2593;52.466;13.436;2022-08-19T09:01:47;24.60;99.90
5150;DHT22;2593;52.466;13.436;2022-08-19T09:04:13;24.70;99.90
5150;DHT22;2593;52.466;13.436;2022-08-19T09:06:51;24.70;99.90
5150;DHT22;2593;52.466;13.436;2022-08-19T09:09:42;24.60;99.90
5150;DHT22;2593;52.466;13.436;2022-08-19T09:14:57;24.80;99.90
5150;DHT22;2593;52.466;13.436;2022-08-19T09:17:27;24.80;99.90
5150;DHT22;2593;52.466;13.436;2022-08-19T09:22:40;24.90;99.90
5150;DHT22;2593;52.466;13.436;2022-08-19T09:25:08;25.10;99.90
5150;DHT22;2593;52.466;13.436;2022-08-19T09:27:36;25.20;99.90
5150;DHT22;2593;52.466;13.436;2022-08-19T09:30:04;25.50;99.90
5150;DHT22;2593;52.466;13.436;2022-08-19T09:32:30;25.90;18.10
5150;DHT22;2593;52.466;13.436;2022-08-19T09:34:56;26.10;1.00
5150;DHT22;2593;52.466;13.436;2022-08-19T09:37:24;26.80;99.90
5150;DHT22;2593;52.466;13.436;2022-08-19T09:39:50;26.90;99.90
5150;DHT22;2593;52.466;13.436;2022-08-19T09:42:16;27.00;99.90
5150;DHT22;2593;52.466;13.436;2022-08-19T09:44:42;27.00;99.90
5150;DHT22;2593;52.466;13.436;2022-08-19T09:47:09;26.80;99.90
5150;DHT22;2593;52.466;13.436;2022-08-19T09:49:35;26.40;99.90
5150;DHT22;2593;52.466;13.436;2022-08-19T09:52:01;26.30;99.90
5150;DHT22;2593;52.466;13.436;2022-08-19T09:54:27;26.20;1.00
5150;DHT22;2593;52.466;13.436;2022-08-19T09:56:53;26.10;1.00
5150;DHT22;2593;52.466;13.436;2022-08-19T09:59:19;26.20;1.00
5150;DHT22;2593;52.466;13.436;2022-08-19T10:01:44;26.20;1.00
5150;DHT22;2593;52.466;13.436;2022-08-19T10:04:10;26.20;1.00
5150;DHT22;2593;52.466;13.436;2022-08-19T10:06:38;26.00;1.00
5150;DHT22;2593;52.466;13.436;2022-08-19T10:09:06;26.00;1.00
5150;DHT22;2593;52.466;13.436;2022-08-19T10:11:34;26.00;1.00
5150;DHT22;2593;52.466;13.436;2022-08-19T10:14:01;26.00;1.00
5150;DHT22;2593;52.466;13.436;2022-08-19T10:16:27;26.10;1.00
5150;DHT22;2593;52.466;13.436;2022-08-19T10:18:53;25.90;1.00
5150;DHT22;2593;52.466;13.436;2022-08-19T10:21:23;25.90;1.00
5150;DHT22;2593;52.466;13.436;2022-08-19T10:23:50;25.90;1.00
5150;DHT22;2593;52.466;13.436;2022-08-19T10:26:19;25.70;1.00
5150;DHT22;2593;52.466;13.436;2022-08-19T10:28:45;25.60;1.00
5150;DHT22;2593;52.466;13.436;2022-08-19T10:31:16;25.50;22.00
5150;DHT22;2593;52.466;13.436;2022-08-19T10:33:43;25.40;99.90
5150;DHT22;2593;52.466;13.436;2022-08-19T10:36:13;25.50;99.90
5150;DHT22;2593;52.466;13.436;2022-08-19T10:38:43;25.50;99.90
5150;DHT22;2593;52.466;13.436;2022-08-19T10:41:18;25.60;98.40
5150;DHT22;2593;52.466;13.436;2022-08-19T10:43:45;25.50;78.80
5150;DHT22;2593;52.466;13.436;2022-08-19T10:46:13;25.40;99.90
5150;DHT22;2593;52.466;13.436;2022-08-19T10:48:40;25.30;99.90
5150;DHT22;2593;52.466;13.436;2022-08-19T10:51:06;25.30;99.90
5150;DHT22;2593;52.466;13.436;2022-08-19T10:53:51;25.20;99.90
5150;DHT22;2593;52.466;13.436;2022-08-19T10:56:17;25.10;99.90
5150;DHT22;2593;52.466;13.436;2022-08-19T10:59:03;25.00;99.90
5150;DHT22;2593;52.466;13.436;2022-08-19T11:01:30;24.90;1.00
5150;DHT22;2593;52.466;13.436;2022-08-19T11:03:59;24.80;1.00
5150;DHT22;2593;52.466;13.436;2022-08-19T11:06:24;24.90;1.00
5150;DHT22;2593;52.466;13.436;2022-08-19T11:08:51;24.90;1.00
5150;DHT22;2593;52.466;13.436;2022-08-19T11:11:17;24.80;1.00
5150;DHT22;2593;52.466;13.436;2022-08-19T11:13:43;24.70;1.00
5150;DHT22;2593;52.466;13.436;2022-08-19T11:16:15;24.60;1.00
5150;DHT22;2593;52.466;13.436;2022-08-19T11:18:44;24.60;64.50
5150;DHT22;2593;52.466;13.436;2022-08-19T11:23:43;24.70;1.00
5150;DHT22;2593;52.466;13.436;2022-08-19T11:26:09;24.70;1.00
5150;DHT22;2593;52.466;13.436;2022-08-19T11:28:35;24.70;1.00
5150;DHT22;2593;52.466;13.436;2022-08-19T11:31:01;24.70;1.00
5150;DHT22;2593;52.466;13.436;2022-08-19T11:33:29;24.70;1.00
5150;DHT22;2593;52.466;13.436;2022-08-19T11:35:57;24.70;1.00
5150;DHT22;2593;52.466;13.436;2022-08-19T11:38:24;24.70;1.00
5150;DHT22;2593;52.466;13.436;2022-08-19T11:40:57;24.80;1.00
5150;DHT22;2593;52.466;13.436;2022-08-19T11:43:23;24.80;1.00
5150;DHT22;2593;52.466;13.436;2022-08-19T11:45:52;24.80;1.00
5150;DHT22;2593;52.466;13.436;2022-08-19T11:48:18;24.80;99.90
5150;DHT22;2593;52.466;13.436;2022-08-19T11:50:50;24.90;99.90
5150;DHT22;2593;52.466;13.436;2022-08-19T11:53:17;25.10;99.90
5150;DHT22;2593;52.466;13.436;2022-08-19T11:55:44;25.20;99.80
5150;DHT22;2593;52.466;13.436;2022-08-19T11:58:11;25.30;47.20
5150;DHT22;2593;52.466;13.436;2022-08-19T12:00:38;25.20;99.90
5150;DHT22;2593;52.466;13.436;2022-08-19T12:03:04;25.00;99.90
5150;DHT22;2593;52.466;13.436;2022-08-19T12:05:30;24.90;99.90
5150;DHT22;2593;52.466;13.436;2022-08-19T12:07:55;24.90;99.90
5150;DHT22;2593;52.466;13.436;2022-08-19T12:10:21;25.10;99.90
5150;DHT22;2593;52.466;13.436;2022-08-19T12:12:47;25.20;99.90
5150;DHT22;2593;52.466;13.436;2022-08-19T12:15:13;25.30;1.00
5150;DHT22;2593;52.466;13.436;2022-08-19T12:17:40;25.40;1.00
5150;DHT22;2593;52.466;13.436;2022-08-19T12:20:08;25.40;1.00
5150;DHT22;2593;52.466;13.436;2022-08-19T12:22:35;25.50;1.00
5150;DHT22;2593;52.466;13.436;2022-08-19T12:25:02;25.50;1.00
5150;DHT22;2593;52.466;13.436;2022-08-19T12:27:27;25.60;1.00
5150;DHT22;2593;52.466;13.436;2022-08-19T12:29:53;25.80;1.00
5150;DHT22;2593;52.466;13.436;2022-08-19T12:32:18;26.00;99.90
5150;DHT22;2593;52.466;13.436;2022-08-19T12:34:44;26.10;99.90
5150;DHT22;2593;52.466;13.436;2022-08-19T12:37:12;26.20;99.90
5150;DHT22;2593;52.466;13.436;2022-08-19T12:39:40;26.10;99.90
5150;DHT22;2593;52.466;13.436;2022-08-19T12:42:07;26.00;99.90
5150;DHT22;2593;52.466;13.436;2022-08-19T12:44:35;25.80;99.90
5150;DHT22;2593;52.466;13.436;2022-08-19T12:47:00;25.70;99.90
5150;DHT22;2593;52.466;13.436;2022-08-19T12:49:28;25.70;99.90
5150;DHT22;2593;52.466;13.436;2022-08-19T12:51:54;25.70;1.00
5150;DHT22;2593;52.466;13.436;2022-08-19T12:54:20;25.90;99.90
5150;DHT22;2593;52.466;13.436;2022-08-19T12:56:45;26.00;99.90
5150;DHT22;2593;52.466;13.436;2022-08-19T12:59:11;26.10;99.90
5150;DHT22;2593;52.466;13.436;2022-08-19T13:01:37;26.30;99.90
5150;DHT22;2593;52.466;13.436;2022-08-19T13:04:03;26.50;99.90
5150;DHT22;2593;52.466;13.436;2022-08-19T13:06:29;26.60;99.90
5150;DHT22;2593;52.466;13.436;2022-08-19T13:08:55;26.50;99.90
5150;DHT22;2593;52.466;13.436;2022-08-19T13:11:21;26.40;99.90
5150;DHT22;2593;52.466;13.436;2022-08-19T13:13:50;26.10;99.90
5150;DHT22;2593;52.466;13.436;2022-08-19T13:16:17;25.90;99.90
5150;DHT22;2593;52.466;13.436;2022-08-19T13:18:45;25.80;99.90
5150;DHT22;2593;52.466;13.436;2022-08-19T13:21:12;25.70;99.90
5150;DHT22;2593;52.466;13.436;2022-08-19T13:23:39;25.60;99.90
5150;DHT22;2593;52.466;13.436;2022-08-19T13:26:06;25.60;99.90
5150;DHT22;2593;52.466;13.436;2022-08-19T13:28:33;25.60;99.90
5150;DHT22;2593;52.466;13.436;2022-08-19T13:31:19;25.60;99.90
5150;DHT22;2593;52.466;13.436;2022-08-19T13:34:04;25.50;99.90
5150;DHT22;2593;52.466;13.436;2022-08-19T13:36:34;25.50;99.90
5150;DHT22;2593;52.466;13.436;2022-08-19T13:39:00;25.60;99.90
5150;DHT22;2593;52.466;13.436;2022-08-19T13:41:26;25.60;99.90
5150;DHT22;2593;52.466;13.436;2022-08-19T13:43:52;25.70;99.90
5150;DHT22;2593;52.466;13.436;2022-08-19T13:46:18;25.70;99.90
5150;DHT22;2593;52.466;13.436;2022-08-19T13:48:45;25.70;99.90
5150;DHT22;2593;52.466;13.436;2022-08-19T13:51:11;25.60;99.90
5150;DHT22;2593;52.466;13.436;2022-08-19T13:53:38;25.50;99.90
5150;DHT22;2593;52.466;13.436;2022-08-19T13:56:09;25.40;99.90
5150;DHT22;2593;52.466;13.436;2022-08-19T13:58:35;25.30;99.90
5150;DHT22;2593;52.466;13.436;2022-08-19T14:01:01;25.30;99.90
5150;DHT22;2593;52.466;13.436;2022-08-19T14:03:27;25.30;99.90
5150;DHT22;2593;52.466;13.436;2022-08-19T14:05:53;25.30;99.90
5150;DHT22;2593;52.466;13.436;2022-08-19T14:08:19;25.40;99.90
5150;DHT22;2593;52.466;13.436;2022-08-19T14:10:45;25.40;1.00
5150;DHT22;2593;52.466;13.436;2022-08-19T14:13:14;25.40;1.00
5150;DHT22;2593;52.466;13.436;2022-08-19T14:15:40;25.50;99.90
5150;DHT22;2593;52.466;13.436;2022-08-19T14:18:05;25.50;99.90
5150;DHT22;2593;52.466;13.436;2022-08-19T14:20:36;25.50;99.90
5150;DHT22;2593;52.466;13.436;2022-08-19T14:23:02;25.50;99.90
5150;DHT22;2593;52.466;13.436;2022-08-19T14:25:29;25.40;99.90
5150;DHT22;2593;52.466;13.436;2022-08-19T14:27:56;25.40;99.90
5150;DHT22;2593;52.466;13.436;2022-08-19T14:30:31;25.50;99.90
5150;DHT22;2593;52.466;13.436;2022-08-19T14:32:58;25.60;99.90
5150;DHT22;2593;52.466;13.436;2022-08-19T14:35:25;25.60;99.90
5150;DHT22;2593;52.466;13.436;2022-08-19T14:37:52;25.60;99.90
5150;DHT22;2593;52.466;13.436;2022-08-19T14:40:26;25.50;99.90
5150;DHT22;2593;52.466;13.436;2022-08-19T14:42:53;25.60;99.90
5150;DHT22;2593;52.466;13.436;2022-08-19T14:45:27;25.60;99.90
5150;DHT22;2593;52.466;13.436;2022-08-19T14:47:53;25.50;99.90
5150;DHT22;2593;52.466;13.436;2022-08-19T14:50:19;25.50;99.90
5150;DHT22;2593;52.466;13.436;2022-08-19T14:52:46;25.40;99.90
5150;DHT22;2593;52.466;13.436;2022-08-19T14:55:13;25.40;99.90
5150;DHT22;2593;52.466;13.436;2022-08-19T14:57:41;25.30;99.90
5150;DHT22;2593;52.466;13.436;2022-08-19T15:00:07;25.30;1.00
5150;DHT22;2593;52.466;13.436;2022-08-19T15:02:37;25.40;1.00
5150;DHT22;2593;52.466;13.436;2022-08-19T15:05:02;25.30;99.90
5150;DHT22;2593;52.466;13.436;2022-08-19T15:07:29;25.20;1.00
5150;DHT22;2593;52.466;13.436;2022-08-19T15:09:54;25.20;1.00
5150;DHT22;2593;52.466;13.436;2022-08-19T15:12:20;25.20;1.00
5150;DHT22;2593;52.466;13.436;2022-08-19T15:14:47;25.10;1.00
5150;DHT22;2593;52.466;13.436;2022-08-19T15:17:16;25.00;1.00
5150;DHT22;2593;52.466;13.436;2022-08-19T15:19:42;25.00;1.00
5150;DHT22;2593;52.466;13.436;2022-08-19T15:22:08;24.90;1.00
5150;DHT22;2593;52.466;13.436;2022-08-19T15:24:33;24.80;1.00
5150;DHT22;2593;52.466;13.436;2022-08-19T15:27:01;24.80;1.00
5150;DHT22;2593;52.466;13.436;2022-08-19T15:29:26;24.80;1.00
5150;DHT22;2593;52.466;13.436;2022-08-19T15:31:52;24.70;1.00
5150;DHT22;2593;52.466;13.436;2022-08-19T15:34:21;24.70;1.00
5150;DHT22;2593;52.466;13.436;2022-08-19T15:36:46;24.60;1.00
5150;DHT22;2593;52.466;13.436;2022-08-19T15:39:12;24.60;1.00
5150;DHT22;2593;52.466;13.436;2022-08-19T15:41:37;24.70;1.00
5150;DHT22;2593;52.466;13.436;2022-08-19T15:44:15;24.60;1.00
5150;DHT22;2593;52.466;13.436;2022-08-19T15:46:44;24.60;70.40
5150;DHT22;2593;52.466;13.436;2022-08-19T15:49:11;24.50;32.80
5150;DHT22;2593;52.466;13.436;2022-08-19T15:51:39;24.50;78.20
5150;DHT22;2593;52.466;13.436;2022-08-19T15:54:09;24.40;99.90
5150;DHT22;2593;52.466;13.436;2022-08-19T15:56:35;24.30;1.00
5150;DHT22;2593;52.466;13.436;2022-08-19T15:59:20;24.20;99.90
5150;DHT22;2593;52.466;13.436;2022-08-19T16:02:04;24.00;99.90
5150;DHT22;2593;52.466;13.436;2022-08-19T16:04:48;23.90;1.00